createdAt,value
2018-12-23T05:00:31.991Z,86.55
2018-12-23T05:01:31.980Z,86.55
2018-12-23T05:02:31.955Z,86.65
2018-12-23T05:03:31.942Z,86.55
2018-12-23T05:04:31.930Z,87.48
2018-12-23T05:05:31.920Z,87.68
2018-12-23T05:06:31.924Z,87.48
2018-12-23T05:07:31.897Z,87.37
2018-12-23T05:08:31.886Z,87.27
2018-12-23T05:09:31.875Z,86.92
2018-12-23T05:10:31.874Z,87.65
2018-12-23T05:11:31.867Z,87.23
2018-12-23T05:12:31.944Z,87.74
2018-12-23T05:13:34.202Z,87.85
2018-12-23T05:14:31.824Z,87.85
2018-12-23T05:15:31.807Z,87.65
2018-12-23T05:16:31.806Z,87.54
2018-12-23T05:17:31.783Z,87.44
2018-12-23T05:18:31.776Z,86.61
2018-12-23T05:19:31.762Z,87.44
2018-12-23T05:20:31.750Z,87.19
2018-12-23T05:21:31.763Z,87.34
2018-12-23T05:22:31.728Z,86.71
2018-12-23T05:23:31.720Z,85.75
2018-12-23T05:24:31.706Z,85.44
2018-12-23T05:25:31.694Z,84.72
2018-12-23T05:26:31.698Z,85.13
2018-12-23T05:27:31.671Z,85.64
2018-12-23T05:28:31.663Z,85.44
2018-12-23T05:29:31.648Z,85.85
2018-12-23T05:30:31.639Z,85.64
2018-12-23T05:31:31.645Z,85.64
2018-12-23T05:32:31.614Z,85.64
2018-12-23T05:33:31.603Z,85.95
2018-12-23T05:34:31.591Z,86.05
2018-12-23T05:35:31.581Z,86.05
2018-12-23T05:36:31.581Z,85.64
2018-12-23T05:37:31.558Z,85.95
2018-12-23T05:38:31.546Z,85.89
2018-12-23T05:39:31.535Z,85.85
2018-12-23T05:40:31.527Z,86.05
2018-12-23T05:41:31.526Z,85.75
2018-12-23T05:42:31.502Z,84.09
2018-12-23T05:43:31.495Z,83.58
2018-12-23T05:44:31.478Z,83.48
2018-12-23T05:45:31.493Z,85.23
2018-12-23T05:46:31.478Z,85.23
2018-12-23T05:47:31.445Z,84.61
2018-12-23T05:48:31.438Z,83.58
2018-12-23T05:49:31.424Z,84.30
2018-12-23T05:50:31.411Z,83.06
2018-12-23T05:51:31.415Z,83.68
2018-12-23T05:52:31.388Z,84.61
2018-12-23T05:53:31.378Z,84.72
2018-12-23T05:54:31.369Z,85.02
2018-12-23T05:55:31.357Z,84.30
2018-12-23T05:56:31.354Z,84.09
2018-12-23T05:57:31.343Z,82.55
2018-12-23T05:58:31.333Z,82.51
2018-12-23T05:59:31.307Z,83.68
2018-12-23T06:00:31.294Z,82.96
2018-12-23T06:01:31.301Z,82.03
2018-12-23T06:02:31.273Z,81.99
2018-12-23T06:03:31.261Z,81.62
2018-12-23T06:04:31.248Z,82.65
2018-12-23T06:05:31.237Z,83.58
2018-12-23T06:06:31.238Z,82.96
2018-12-23T06:07:31.215Z,83.48
2018-12-23T06:08:31.206Z,84.09
2018-12-23T06:09:31.199Z,83.89
2018-12-23T06:10:31.183Z,83.17
2018-12-23T06:11:31.187Z,83.78
2018-12-23T06:12:31.161Z,84.20
2018-12-23T06:13:31.148Z,84.86
2018-12-23T06:14:31.140Z,84.65
2018-12-23T06:15:31.129Z,84.65
2018-12-23T06:16:31.131Z,85.23
2018-12-23T06:17:31.102Z,85.47
2018-12-23T06:18:31.091Z,86.20
2018-12-23T06:19:31.080Z,85.89
2018-12-23T06:20:31.073Z,85.58
2018-12-23T06:21:31.073Z,85.68
2018-12-23T06:22:31.047Z,85.47
2018-12-23T06:23:31.035Z,85.58
2018-12-23T06:24:31.026Z,85.27
2018-12-23T06:25:31.012Z,85.17
2018-12-23T06:26:31.016Z,84.55
2018-12-23T06:27:30.992Z,83.89
2018-12-23T06:28:30.978Z,83.17
2018-12-23T06:29:30.979Z,84.20
2018-12-23T06:30:30.954Z,83.89
2018-12-23T06:31:30.958Z,84.09
2018-12-23T06:32:30.933Z,81.99
2018-12-23T06:33:30.923Z,81.51
2018-12-23T06:34:30.911Z,82.20
2018-12-23T06:35:30.898Z,81.17
2018-12-23T06:36:30.888Z,81.79
2018-12-23T06:37:30.895Z,81.99
2018-12-23T06:38:30.864Z,81.17
2018-12-23T06:39:30.858Z,81.17
2018-12-23T06:40:30.847Z,82.61
2018-12-23T06:41:30.830Z,81.17
2018-12-23T06:42:30.830Z,81.27
2018-12-23T06:43:30.807Z,80.96
2018-12-23T06:44:30.799Z,81.58
2018-12-23T06:45:30.785Z,82.20
2018-12-23T06:46:30.774Z,82.51
2018-12-23T06:47:30.775Z,83.06
2018-12-23T06:48:30.750Z,84.06
2018-12-23T06:49:30.740Z,84.09
2018-12-23T06:50:30.730Z,82.96
2018-12-23T06:51:30.714Z,83.78
2018-12-23T06:52:30.723Z,82.96
2018-12-23T06:53:30.693Z,84.30
2018-12-23T06:54:30.678Z,85.44
2018-12-23T06:55:30.669Z,85.33
2018-12-23T06:56:30.657Z,85.23
2018-12-23T06:57:30.665Z,83.58
2018-12-23T06:58:30.633Z,83.99
2018-12-23T06:59:30.626Z,84.20
2018-12-23T07:00:30.612Z,84.51
2018-12-23T07:01:30.599Z,82.92
2018-12-23T07:02:30.609Z,82.65
2018-12-23T07:03:30.579Z,82.82
2018-12-23T07:04:30.567Z,83.64
2018-12-23T07:05:30.542Z,83.85
2018-12-23T07:06:30.544Z,82.71
2018-12-23T07:07:30.557Z,82.61
2018-12-23T07:08:30.522Z,82.10
2018-12-23T07:09:30.509Z,81.89
2018-12-23T07:10:30.498Z,82.71
2018-12-23T07:11:30.495Z,82.40
2018-12-23T07:12:30.490Z,82.71
2018-12-23T07:13:30.464Z,83.64
2018-12-23T07:14:30.454Z,82.61
2018-12-23T07:15:30.441Z,83.54
2018-12-23T07:16:30.430Z,83.64
2018-12-23T07:17:30.425Z,84.88
2018-12-23T07:18:30.408Z,84.36
2018-12-23T07:19:30.396Z,83.23
2018-12-23T07:20:30.388Z,82.96
2018-12-23T07:21:30.374Z,83.54
2018-12-23T07:22:30.377Z,84.16
2018-12-23T07:23:30.352Z,83.95
2018-12-23T07:24:30.342Z,83.44
2018-12-23T07:25:30.329Z,83.64
2018-12-23T07:26:30.317Z,85.39
2018-12-23T07:27:30.318Z,85.44
2018-12-23T07:28:30.295Z,85.09
2018-12-23T07:29:30.284Z,85.71
2018-12-23T07:30:30.269Z,85.60
2018-12-23T07:31:30.261Z,85.33
2018-12-23T07:32:30.272Z,85.85
2018-12-23T07:33:30.239Z,85.75
2018-12-23T07:34:30.229Z,85.23
2018-12-23T07:35:30.218Z,85.50
2018-12-23T07:36:30.210Z,85.44
2018-12-23T07:37:30.205Z,84.72
2018-12-23T07:38:30.184Z,83.89
2018-12-23T07:39:30.208Z,84.41
2018-12-23T07:40:30.160Z,85.23
2018-12-23T07:41:30.148Z,86.02
2018-12-23T07:42:30.154Z,85.50
2018-12-23T07:43:30.130Z,86.32
2018-12-23T07:44:30.111Z,85.95
2018-12-23T07:45:30.098Z,85.91
2018-12-23T07:46:30.088Z,85.64
2018-12-23T07:47:30.092Z,85.54
2018-12-23T07:48:30.064Z,86.02
2018-12-23T07:49:30.054Z,85.71
2018-12-23T07:50:30.042Z,85.85
2018-12-23T07:51:30.035Z,86.16
2018-12-23T07:52:30.039Z,87.26
2018-12-23T07:53:30.009Z,86.53
2018-12-23T07:54:30.001Z,85.71
2018-12-23T07:55:29.996Z,85.71
2018-12-23T07:56:29.974Z,85.44
2018-12-23T07:57:29.975Z,85.81
2018-12-23T07:58:29.952Z,84.72
2018-12-23T07:59:29.940Z,85.23
2018-12-23T08:00:29.930Z,85.44
2018-12-23T08:01:29.918Z,85.30
2018-12-23T08:02:29.919Z,84.09
2018-12-23T08:03:29.895Z,84.51
2018-12-23T08:04:29.885Z,85.13
2018-12-23T08:05:29.939Z,85.44
2018-12-23T08:06:29.863Z,85.81
2018-12-23T08:07:36.148Z,83.89
2018-12-23T08:08:30.838Z,82.96
2018-12-23T08:09:29.827Z,83.17
2018-12-23T08:10:29.930Z,82.92
2018-12-23T08:11:29.804Z,81.99
2018-12-23T08:12:29.806Z,82.03
2018-12-23T08:13:29.783Z,81.99
2018-12-23T08:14:29.775Z,83.85
2018-12-23T08:15:29.762Z,83.13
2018-12-23T08:16:29.748Z,82.40
2018-12-23T08:17:29.749Z,83.64
2018-12-23T08:18:29.731Z,83.85
2018-12-23T08:19:29.715Z,83.95
2018-12-23T08:20:29.709Z,83.85
2018-12-23T08:21:29.692Z,83.95
2018-12-23T08:22:29.694Z,81.99
2018-12-23T08:23:29.668Z,82.20
2018-12-23T08:24:29.660Z,82.20
2018-12-23T08:25:35.570Z,81.89
2018-12-23T08:26:30.632Z,82.20
2018-12-23T08:27:29.637Z,82.30
2018-12-23T08:28:29.608Z,82.20
2018-12-23T08:29:29.598Z,82.20
2018-12-23T08:30:29.586Z,82.16
2018-12-23T08:31:29.576Z,82.37
2018-12-23T08:32:29.584Z,82.30
2018-12-23T08:33:29.552Z,81.96
2018-12-23T08:34:29.541Z,82.78
2018-12-23T08:35:29.537Z,83.29
2018-12-23T08:36:29.519Z,83.40
2018-12-23T08:37:29.546Z,83.40
2018-12-23T08:38:29.491Z,84.84
2018-12-23T08:39:29.485Z,83.91
2018-12-23T08:40:29.475Z,83.61
2018-12-23T08:41:29.512Z,84.29
2018-12-23T08:42:29.450Z,85.87
2018-12-23T08:43:29.452Z,85.46
2018-12-23T08:44:29.427Z,85.67
2018-12-23T08:45:29.417Z,85.15
2018-12-23T08:46:29.405Z,84.59
2018-12-23T08:47:29.395Z,84.29
2018-12-23T08:48:29.401Z,83.91
2018-12-23T08:49:29.373Z,84.22
2018-12-23T08:50:29.361Z,85.01
2018-12-23T08:51:29.353Z,85.63
2018-12-23T08:52:29.337Z,84.74
2018-12-23T08:53:29.342Z,85.11
2018-12-23T08:54:29.317Z,84.59
2018-12-23T08:55:29.305Z,85.36
2018-12-23T08:56:29.292Z,84.64
2018-12-23T08:57:29.281Z,84.01
2018-12-23T08:58:29.282Z,83.29
2018-12-23T08:59:29.259Z,83.36
2018-12-23T09:00:29.296Z,84.29
2018-12-23T09:01:29.235Z,84.19
2018-12-23T09:02:29.229Z,84.29
2018-12-23T09:03:29.225Z,84.59
2018-12-23T09:04:29.205Z,85.42
2018-12-23T09:05:29.199Z,85.31
2018-12-23T09:06:29.180Z,84.53
2018-12-23T09:07:29.169Z,84.49
2018-12-23T09:08:29.169Z,84.70
2018-12-23T09:09:29.147Z,84.49
2018-12-23T09:10:29.155Z,84.29
2018-12-23T09:11:29.123Z,85.01
2018-12-23T09:12:29.116Z,84.59
2018-12-23T09:13:29.121Z,84.70
2018-12-23T09:14:29.094Z,84.29
2018-12-23T09:15:29.080Z,84.08
2018-12-23T09:16:29.066Z,84.49
2018-12-23T09:17:29.055Z,85.11
2018-12-23T09:18:29.055Z,85.63
2018-12-23T09:19:29.171Z,86.04
2018-12-23T09:20:29.018Z,87.27
2018-12-23T09:21:29.010Z,87.17
2018-12-23T09:22:28.995Z,86.97
2018-12-23T09:23:29.000Z,87.17
2018-12-23T09:24:28.973Z,87.48
2018-12-23T09:25:28.962Z,87.69
2018-12-23T09:26:28.953Z,87.96
2018-12-23T09:27:28.938Z,88.72
2018-12-23T09:28:28.947Z,88.72
2018-12-23T09:29:28.917Z,87.44
2018-12-23T09:30:28.921Z,86.35
2018-12-23T09:31:28.906Z,86.41
2018-12-23T09:32:28.881Z,87.34
2018-12-23T09:33:28.890Z,87.03
2018-12-23T09:34:28.860Z,87.75
2018-12-23T09:35:28.857Z,87.65
2018-12-23T09:36:28.844Z,86.93
2018-12-23T09:37:28.826Z,87.13
2018-12-23T09:38:28.834Z,86.31
2018-12-23T09:39:28.802Z,86.21
2018-12-23T09:40:28.791Z,86.21
2018-12-23T09:41:28.780Z,86.55
2018-12-23T09:42:28.770Z,85.42
2018-12-23T09:43:28.769Z,85.38
2018-12-23T09:44:28.745Z,86.00
2018-12-23T09:45:28.736Z,87.44
2018-12-23T09:46:28.724Z,85.17
2018-12-23T09:47:28.713Z,84.14
2018-12-23T09:48:28.713Z,85.49
2018-12-23T09:49:28.693Z,85.49
2018-12-23T09:50:28.677Z,85.34
2018-12-23T09:51:28.667Z,86.21
2018-12-23T09:52:28.661Z,87.09
2018-12-23T09:53:28.660Z,86.37
2018-12-23T09:54:28.633Z,85.38
2018-12-23T09:55:28.625Z,86.82
2018-12-23T09:56:28.610Z,87.40
2018-12-23T09:57:28.619Z,86.00
2018-12-23T09:58:28.601Z,86.52
2018-12-23T09:59:28.582Z,86.93
2018-12-23T10:00:28.573Z,86.58
2018-12-23T10:01:28.603Z,86.79
2018-12-23T10:02:28.545Z,86.79
2018-12-23T10:03:28.629Z,87.60
2018-12-23T10:04:28.522Z,87.81
2018-12-23T10:05:28.505Z,87.30
2018-12-23T10:06:28.503Z,87.92
2018-12-23T10:07:28.484Z,88.12
2018-12-23T10:08:28.492Z,87.19
2018-12-23T10:09:28.466Z,87.81
2018-12-23T10:10:28.768Z,87.81
2018-12-23T10:11:28.437Z,87.81
2018-12-23T10:12:28.430Z,85.82
2018-12-23T10:13:28.431Z,85.14
2018-12-23T10:14:28.411Z,84.11
2018-12-23T10:15:28.394Z,84.89
2018-12-23T10:16:28.382Z,84.99
2018-12-23T10:17:28.369Z,85.51
2018-12-23T10:18:28.384Z,84.07
2018-12-23T10:19:28.347Z,85.51
2018-12-23T10:20:28.337Z,85.20
2018-12-23T10:21:28.326Z,85.51
2018-12-23T10:22:28.318Z,85.30
2018-12-23T10:23:28.315Z,84.48
2018-12-23T10:24:28.292Z,82.79
2018-12-23T10:25:28.284Z,83.72
2018-12-23T10:26:28.268Z,81.91
2018-12-23T10:27:28.261Z,82.42
2018-12-23T10:28:28.257Z,82.69
2018-12-23T10:29:28.507Z,82.07
2018-12-23T10:30:28.234Z,81.70
2018-12-23T10:31:28.212Z,81.87
2018-12-23T10:32:28.202Z,82.07
2018-12-23T10:33:28.205Z,81.76
2018-12-23T10:34:28.180Z,82.07
2018-12-23T10:35:28.167Z,81.25
2018-12-23T10:36:28.156Z,80.53
2018-12-23T10:37:28.145Z,80.22
2018-12-23T10:38:28.152Z,80.84
2018-12-23T10:39:28.121Z,80.94
2018-12-23T10:40:28.114Z,80.84
2018-12-23T10:41:28.103Z,80.39
2018-12-23T10:42:28.097Z,80.39
2018-12-23T10:43:28.114Z,80.19
2018-12-23T10:44:28.065Z,79.57
2018-12-23T10:45:28.054Z,79.36
2018-12-23T10:46:28.047Z,79.57
2018-12-23T10:47:28.031Z,79.57
2018-12-23T10:48:28.100Z,80.80
2018-12-23T10:49:28.026Z,79.98
2018-12-23T10:50:27.997Z,79.57
2018-12-23T10:51:27.986Z,79.88
2018-12-23T10:52:27.978Z,79.67
2018-12-23T10:53:27.964Z,80.80
2018-12-23T10:54:27.969Z,81.42
2018-12-23T10:55:27.942Z,80.70
2018-12-23T10:56:27.995Z,80.80
2018-12-23T10:57:27.920Z,82.14
2018-12-23T10:58:27.908Z,81.83
2018-12-23T10:59:27.914Z,82.65
2018-12-23T11:00:27.889Z,82.04
2018-12-23T11:01:27.869Z,82.04
2018-12-23T11:02:27.863Z,82.28
2018-12-23T11:03:27.847Z,82.48
2018-12-23T11:04:27.859Z,83.11
2018-12-23T11:05:27.825Z,84.13
2018-12-23T11:06:27.813Z,83.72
2018-12-23T11:07:27.802Z,83.62
2018-12-23T11:08:27.785Z,84.40
2018-12-23T11:09:27.791Z,85.47
2018-12-23T11:10:27.769Z,84.85
2018-12-23T11:11:27.759Z,83.41
2018-12-23T11:12:27.745Z,84.23
2018-12-23T11:13:27.734Z,83.62
2018-12-23T11:14:27.741Z,84.03
2018-12-23T11:15:27.711Z,83.83
2018-12-23T11:16:27.720Z,83.41
2018-12-23T11:17:27.679Z,82.90
2018-12-23T11:18:27.678Z,83.20
2018-12-23T11:19:27.685Z,83.51
2018-12-23T11:20:27.660Z,82.90
2018-12-23T11:21:27.646Z,83.51
2018-12-23T11:22:27.634Z,84.54
2018-12-23T11:23:27.624Z,84.30
2018-12-23T11:24:27.637Z,83.92
2018-12-23T11:25:27.620Z,83.99
2018-12-23T11:26:27.591Z,85.12
2018-12-23T11:27:27.577Z,83.62
2018-12-23T11:28:27.570Z,83.37
2018-12-23T11:29:31.604Z,83.06
2018-12-23T11:30:27.541Z,82.65
2018-12-23T11:31:27.533Z,81.93
2018-12-23T11:32:27.521Z,81.93
2018-12-23T11:33:27.512Z,81.83
2018-12-23T11:34:27.508Z,81.73
2018-12-23T11:35:27.581Z,80.77
2018-12-23T11:36:27.475Z,81.62
2018-12-23T11:37:27.463Z,81.42
2018-12-23T11:38:35.263Z,80.91
2018-12-23T11:39:28.456Z,81.11
2018-12-23T11:40:27.434Z,81.59
2018-12-23T11:41:27.405Z,81.62
2018-12-23T11:42:27.411Z,80.80
2018-12-23T11:43:27.458Z,80.80
2018-12-23T11:44:27.403Z,82.41
2018-12-23T11:45:27.390Z,82.20
2018-12-23T11:46:27.368Z,81.18
2018-12-23T11:47:27.353Z,81.18
2018-12-23T11:48:27.343Z,80.56
2018-12-23T11:49:27.344Z,80.87
2018-12-23T11:50:27.320Z,80.87
2018-12-23T11:51:27.308Z,81.04
2018-12-23T11:52:27.291Z,80.63
2018-12-23T11:53:27.289Z,81.24
2018-12-23T11:54:27.288Z,81.48
2018-12-23T11:55:27.283Z,80.77
2018-12-23T11:56:27.287Z,80.63
2018-12-23T11:57:27.246Z,79.49
2018-12-23T11:58:27.238Z,79.70
2018-12-23T11:59:27.237Z,79.49
2018-12-23T12:00:27.212Z,79.49
2018-12-23T12:01:27.196Z,79.80
2018-12-23T12:02:27.184Z,79.08
2018-12-23T12:03:27.177Z,80.15
2018-12-23T12:04:27.174Z,79.39
2018-12-23T12:05:27.156Z,79.29
2018-12-23T12:06:27.140Z,79.91
2018-12-23T12:07:27.124Z,78.30
2018-12-23T12:08:27.118Z,79.39
2018-12-23T12:09:27.122Z,78.57
2018-12-23T12:10:27.098Z,79.29
2018-12-23T12:11:27.087Z,78.67
2018-12-23T12:12:27.076Z,79.60
2018-12-23T12:13:27.065Z,79.39
2018-12-23T12:14:27.068Z,79.08
2018-12-23T12:15:27.043Z,79.70
2018-12-23T12:16:27.030Z,79.19
2018-12-23T12:17:27.023Z,78.57
2018-12-23T12:18:27.008Z,78.94
2018-12-23T12:19:27.010Z,79.49
2018-12-23T12:20:26.989Z,78.57
2018-12-23T12:21:26.976Z,78.02
2018-12-23T12:22:26.964Z,79.39
2018-12-23T12:23:26.952Z,79.80
2018-12-23T12:24:26.956Z,78.16
2018-12-23T12:25:26.930Z,78.16
2018-12-23T12:26:26.923Z,78.67
2018-12-23T12:27:26.908Z,77.92
2018-12-23T12:28:26.901Z,78.78
2018-12-23T12:29:26.901Z,78.06
2018-12-23T12:30:26.872Z,78.02
2018-12-23T12:31:26.863Z,78.36
2018-12-23T12:32:26.850Z,79.08
2018-12-23T12:33:26.835Z,78.64
2018-12-23T12:34:26.844Z,78.27
2018-12-23T12:35:26.822Z,77.71
2018-12-23T12:36:26.805Z,79.39
2018-12-23T12:37:26.798Z,77.92
2018-12-23T12:38:26.786Z,78.47
2018-12-23T12:39:30.878Z,77.65
2018-12-23T12:40:26.764Z,77.30
2018-12-23T12:41:26.753Z,78.27
2018-12-23T12:42:26.729Z,77.23
2018-12-23T12:43:26.731Z,77.44
2018-12-23T12:44:26.735Z,77.61
2018-12-23T12:45:26.724Z,76.93
2018-12-23T12:46:26.697Z,77.75
2018-12-23T12:47:26.690Z,77.44
2018-12-23T12:48:26.676Z,76.72
2018-12-23T12:49:26.697Z,77.75
2018-12-23T12:50:26.655Z,78.06
2018-12-23T12:51:26.644Z,78.27
2018-12-23T12:52:26.634Z,78.57
2018-12-23T12:53:26.628Z,79.19
2018-12-23T12:54:26.613Z,79.49
2018-12-23T12:55:26.611Z,79.08
2018-12-23T12:56:26.596Z,78.67
2018-12-23T12:57:26.577Z,78.78
2018-12-23T12:58:26.569Z,79.39
2018-12-23T12:59:26.557Z,79.29
2018-12-23T13:00:26.543Z,78.12
2018-12-23T13:01:26.535Z,79.19
2018-12-23T13:02:26.521Z,79.29
2018-12-23T13:03:26.509Z,79.60
2018-12-23T13:04:26.499Z,79.29
2018-12-23T13:05:26.503Z,78.57
2018-12-23T13:06:26.483Z,79.19
2018-12-23T13:07:26.482Z,79.60
2018-12-23T13:08:26.459Z,79.19
2018-12-23T13:09:26.451Z,80.52
2018-12-23T13:10:26.448Z,81.04
2018-12-23T13:11:26.431Z,81.24
2018-12-23T13:12:26.411Z,80.52
2018-12-23T13:13:26.401Z,81.07
2018-12-23T13:14:26.390Z,82.17
2018-12-23T13:15:26.445Z,81.96
2018-12-23T13:16:26.381Z,81.79
2018-12-23T13:17:26.357Z,82.06
2018-12-23T13:18:26.346Z,82.27
2018-12-23T13:19:26.322Z,81.65
2018-12-23T13:20:28.309Z,81.59
2018-12-23T13:21:26.311Z,83.44
2018-12-23T13:22:26.300Z,83.64
2018-12-23T13:23:26.288Z,83.44
2018-12-23T13:24:26.278Z,83.75
2018-12-23T13:25:26.282Z,83.33
2018-12-23T13:26:26.254Z,83.17
2018-12-23T13:27:26.246Z,83.78
2018-12-23T13:28:26.245Z,83.68
2018-12-23T13:29:26.227Z,85.33
2018-12-23T13:30:26.221Z,85.74
2018-12-23T13:31:26.202Z,85.22
2018-12-23T13:32:26.195Z,86.35
2018-12-23T13:33:26.180Z,85.36
2018-12-23T13:34:26.169Z,86.29
2018-12-23T13:35:26.168Z,87.32
2018-12-23T13:36:26.149Z,85.47
2018-12-23T13:37:26.134Z,85.98
2018-12-23T13:38:26.122Z,86.29
2018-12-23T13:39:26.117Z,87.01
2018-12-23T13:40:26.119Z,87.94
2018-12-23T13:41:26.084Z,87.77
2018-12-23T13:42:26.079Z,88.49
2018-12-23T13:43:26.067Z,88.90
2018-12-23T13:44:26.055Z,90.24
2018-12-23T13:45:26.056Z,89.62
2018-12-23T13:46:26.034Z,89.83
2018-12-23T13:47:26.022Z,90.28
2018-12-23T13:48:26.011Z,91.38
2018-12-23T13:49:26.006Z,91.47
2018-12-23T13:50:26.012Z,92.50
2018-12-23T13:51:25.976Z,92.14
2018-12-23T13:52:25.963Z,92.55
2018-12-23T13:53:25.953Z,92.65
2018-12-23T13:54:25.942Z,92.96
2018-12-23T13:55:25.948Z,93.16
2018-12-23T13:56:25.919Z,93.06
2018-12-23T13:57:25.907Z,92.24
2018-12-23T13:58:25.897Z,91.93
2018-12-23T13:59:25.887Z,92.59
2018-12-23T14:00:25.887Z,93.11
2018-12-23T14:01:25.868Z,92.69
2018-12-23T14:02:25.855Z,92.38
2018-12-23T14:03:25.846Z,92.34
2018-12-23T14:04:25.832Z,93.21
2018-12-23T14:05:25.834Z,92.38
2018-12-23T14:06:25.810Z,92.59
2018-12-23T14:07:25.799Z,92.80
2018-12-23T14:08:25.787Z,92.69
2018-12-23T14:09:25.776Z,92.59
2018-12-23T14:10:25.779Z,93.21
2018-12-23T14:11:25.755Z,93.93
2018-12-23T14:12:25.746Z,93.27
2018-12-23T14:13:25.731Z,94.03
2018-12-23T14:14:25.720Z,93.93
2018-12-23T14:15:25.725Z,93.93
2018-12-23T14:16:25.697Z,93.93
2018-12-23T14:17:25.686Z,94.13
2018-12-23T14:18:25.677Z,94.24
2018-12-23T14:19:25.663Z,94.34
2018-12-23T14:20:25.668Z,93.93
2018-12-23T14:21:25.645Z,93.73
2018-12-23T14:22:25.630Z,94.13
2018-12-23T14:23:25.623Z,94.18
2018-12-23T14:24:25.607Z,94.13
2018-12-23T14:25:25.612Z,94.24
2018-12-23T14:26:25.598Z,95.00
2018-12-23T14:27:25.569Z,94.13
2018-12-23T14:28:25.562Z,94.18
2018-12-23T14:29:25.552Z,93.56
2018-12-23T14:30:25.556Z,94.18
2018-12-23T14:31:25.533Z,93.77
2018-12-23T14:32:25.517Z,92.02
2018-12-23T14:33:25.509Z,92.08
2018-12-23T14:34:25.522Z,91.77
2018-12-23T14:35:25.515Z,91.25
2018-12-23T14:36:25.494Z,91.77
2018-12-23T14:37:25.468Z,91.87
2018-12-23T14:38:25.465Z,92.69
2018-12-23T14:39:28.219Z,93.01
2018-12-23T14:40:26.270Z,93.73
2018-12-23T14:41:25.414Z,93.62
2018-12-23T14:42:25.421Z,93.93
2018-12-23T14:43:25.404Z,94.18
2018-12-23T14:44:25.433Z,94.18
2018-12-23T14:45:25.418Z,94.49
2018-12-23T14:46:25.363Z,94.59
2018-12-23T14:47:25.357Z,94.90
2018-12-23T14:48:25.351Z,95.21
2018-12-23T14:49:25.363Z,94.70
2018-12-23T14:50:25.349Z,94.90
2018-12-23T14:51:25.335Z,94.90
2018-12-23T14:52:25.311Z,94.80
2018-12-23T14:53:25.294Z,95.10
2018-12-23T14:54:25.281Z,95.00
2018-12-23T14:55:25.350Z,94.74
2018-12-23T14:56:25.254Z,95.21
2018-12-23T14:57:25.251Z,95.00
2018-12-23T14:58:25.242Z,95.21
2018-12-23T14:59:25.229Z,95.21
2018-12-23T15:00:25.217Z,95.42
2018-12-23T15:01:25.218Z,95.56
2018-12-23T15:02:25.197Z,95.73
2018-12-23T15:03:25.183Z,95.31
2018-12-23T15:04:25.168Z,95.25
2018-12-23T15:05:25.169Z,95.36
2018-12-23T15:06:25.170Z,95.73
2018-12-23T15:07:25.133Z,95.25
2018-12-23T15:08:25.132Z,95.52
2018-12-23T15:09:25.109Z,95.56
2018-12-23T15:10:25.100Z,95.98
2018-12-23T15:11:25.135Z,96.08
2018-12-23T15:12:25.078Z,96.08
2018-12-23T15:13:25.071Z,96.49
2018-12-23T15:14:25.065Z,96.70
2018-12-23T15:15:25.050Z,96.80
2018-12-23T15:16:25.057Z,96.53
2018-12-23T15:17:25.028Z,97.11
2018-12-23T15:18:25.018Z,97.01
2018-12-23T15:19:25.003Z,97.01
2018-12-23T15:20:24.998Z,97.01
2018-12-23T15:21:24.981Z,97.11
2018-12-23T15:22:24.981Z,96.53
2018-12-23T15:23:24.967Z,97.16
2018-12-23T15:24:24.951Z,97.16
2018-12-23T15:25:24.937Z,97.36
2018-12-23T15:26:24.944Z,96.33
2018-12-23T15:27:24.917Z,96.64
2018-12-23T15:28:24.912Z,96.95
2018-12-23T15:29:24.915Z,96.84
2018-12-23T15:30:24.876Z,96.53
2018-12-23T15:31:24.919Z,96.64
2018-12-23T15:32:24.862Z,96.74
2018-12-23T15:33:24.849Z,96.64
2018-12-23T15:34:24.847Z,96.84
2018-12-23T15:35:24.827Z,96.79
2018-12-23T15:36:24.837Z,96.44
2018-12-23T15:37:24.814Z,96.69
2018-12-23T15:38:24.805Z,96.74
2018-12-23T15:39:24.787Z,96.53
2018-12-23T15:40:24.774Z,96.53
2018-12-23T15:41:24.778Z,96.89
2018-12-23T15:42:24.747Z,97.16
2018-12-23T15:43:24.737Z,96.74
2018-12-23T15:44:24.730Z,97.09
2018-12-23T15:45:24.721Z,97.26
2018-12-23T15:46:24.732Z,97.26
2018-12-23T15:47:24.687Z,97.26
2018-12-23T15:48:24.684Z,97.26
2018-12-23T15:49:24.675Z,97.30
2018-12-23T15:50:24.669Z,97.05
2018-12-23T15:51:24.686Z,96.84
2018-12-23T15:52:24.644Z,96.95
2018-12-23T15:53:24.639Z,96.74
2018-12-23T15:54:24.622Z,97.09
2018-12-23T15:55:24.610Z,97.05
2018-12-23T15:56:24.616Z,97.30
2018-12-23T15:57:24.586Z,97.41
2018-12-23T15:58:24.579Z,97.51
2018-12-23T15:59:24.564Z,97.16
2018-12-23T16:00:24.557Z,97.47
2018-12-23T16:01:24.567Z,97.51
2018-12-23T16:02:24.528Z,97.56
2018-12-23T16:03:24.523Z,97.36
2018-12-23T16:04:24.516Z,97.47
2018-12-23T16:05:24.498Z,97.26
2018-12-23T16:06:24.501Z,97.61
2018-12-23T16:07:24.484Z,97.30
2018-12-23T16:08:24.463Z,97.20
2018-12-23T16:09:24.455Z,96.99
2018-12-23T16:10:24.447Z,96.99
2018-12-23T16:11:24.453Z,96.79
2018-12-23T16:12:24.456Z,97.30
2018-12-23T16:13:24.410Z,97.30
2018-12-23T16:14:24.386Z,97.20
2018-12-23T16:15:24.379Z,97.20
2018-12-23T16:16:24.395Z,97.30
2018-12-23T16:17:24.368Z,97.30
2018-12-23T16:18:24.350Z,97.30
2018-12-23T16:19:24.343Z,97.20
2018-12-23T16:20:24.331Z,97.41
2018-12-23T16:21:24.362Z,97.09
2018-12-23T16:22:24.309Z,97.09
2018-12-23T16:23:24.294Z,96.99
2018-12-23T16:24:24.284Z,96.69
2018-12-23T16:25:24.284Z,97.09
2018-12-23T16:26:24.299Z,96.58
2018-12-23T16:27:24.253Z,96.99
2018-12-23T16:28:24.272Z,96.99
2018-12-23T16:29:24.217Z,96.99
2018-12-23T16:30:24.229Z,96.69
2018-12-23T16:31:24.227Z,96.79
2018-12-23T16:32:24.196Z,96.99
2018-12-23T16:33:24.197Z,96.79
2018-12-23T16:34:24.173Z,96.89
2018-12-23T16:35:24.161Z,96.94
2018-12-23T16:36:24.186Z,96.94
2018-12-23T16:37:24.142Z,97.30
2018-12-23T16:38:24.146Z,97.14
2018-12-23T16:39:24.117Z,97.04
2018-12-23T16:40:24.105Z,96.89
2018-12-23T16:41:24.122Z,96.79
2018-12-23T16:42:24.091Z,97.04
2018-12-23T16:43:24.076Z,96.89
2018-12-23T16:44:24.063Z,96.83
2018-12-23T16:45:24.056Z,96.79
2018-12-23T16:46:24.059Z,97.45
2018-12-23T16:47:24.051Z,97.09
2018-12-23T16:48:24.012Z,97.25
2018-12-23T16:49:24.033Z,97.25
2018-12-23T16:50:24.012Z,97.14
2018-12-23T16:51:24.003Z,97.09
2018-12-23T16:52:23.994Z,97.30
2018-12-23T16:53:23.984Z,97.30
2018-12-23T16:54:23.949Z,96.73
2018-12-23T16:55:23.944Z,97.45
2018-12-23T16:56:23.952Z,97.25
2018-12-23T16:57:23.917Z,97.66
2018-12-23T16:58:23.907Z,97.29
2018-12-23T16:59:23.901Z,98.18
2018-12-23T17:00:23.901Z,97.76
2018-12-23T17:01:23.894Z,98.43
2018-12-23T17:02:23.870Z,98.28
2018-12-23T17:03:23.858Z,97.86
2018-12-23T17:04:23.846Z,98.07
2018-12-23T17:05:23.844Z,97.55
2018-12-23T17:06:25.779Z,98.18
2018-12-23T17:07:23.830Z,97.45
2018-12-23T17:08:23.796Z,98.28
2018-12-23T17:09:23.819Z,98.18
2018-12-23T17:10:23.781Z,97.76
2018-12-23T17:11:23.760Z,98.18
2018-12-23T17:12:23.790Z,98.38
2018-12-23T17:13:23.754Z,98.38
2018-12-23T17:14:23.733Z,98.28
2018-12-23T17:15:23.737Z,98.11
2018-12-23T17:16:23.715Z,97.66
2018-12-23T17:17:23.730Z,97.34
2018-12-23T17:18:23.684Z,97.86
2018-12-23T17:19:23.675Z,97.34
2018-12-23T17:20:23.663Z,97.45
2018-12-23T17:21:23.658Z,97.34
2018-12-23T17:22:23.663Z,97.55
2018-12-23T17:23:23.626Z,97.34
2018-12-23T17:24:23.617Z,97.55
2018-12-23T17:25:23.614Z,97.66
2018-12-23T17:26:23.601Z,97.34
2018-12-23T17:27:23.612Z,97.86
2018-12-23T17:28:25.246Z,97.76
2018-12-23T17:29:23.756Z,97.34
2018-12-23T17:30:23.554Z,97.55
2018-12-23T17:31:23.534Z,97.34
2018-12-23T17:32:24.988Z,97.25
2018-12-23T17:33:23.796Z,97.14
2018-12-23T17:34:25.532Z,97.25
2018-12-23T17:35:23.667Z,97.25
2018-12-23T17:36:23.665Z,97.76
2018-12-23T17:37:23.490Z,96.94
2018-12-23T17:38:23.460Z,97.25
2018-12-23T17:39:23.450Z,97.76
2018-12-23T17:40:25.179Z,97.86
2018-12-23T17:41:23.435Z,97.86
2018-12-23T17:42:23.431Z,97.66
2018-12-23T17:43:23.413Z,97.55
2018-12-23T17:44:23.393Z,98.18
2018-12-23T17:45:23.574Z,98.18
2018-12-23T17:46:23.371Z,97.55
2018-12-23T17:47:23.369Z,97.86
2018-12-23T17:48:23.347Z,97.66
2018-12-23T17:49:23.337Z,97.66
2018-12-23T17:50:23.323Z,97.66
2018-12-23T17:51:23.317Z,97.34
2018-12-23T17:52:23.652Z,97.34